Time;durP1;ratioP1;P1;durP2;ratioP2;P2;SDS_P1;SDS_P2;PMS_P1;PMS_P2;Temp;Humidity;BMP_temperature;BMP_pressure;BME280_temperature;BME280_humidity;BME280_pressure;Samples;Min_cycle;Max_cycle;Signal;HPM_P1;HPM_P2
2022/11/06 00:02:23;;;;;;;6.40;4.53;;;10.10;99.90;;;;;;4834441;29;20494;-86
2022/11/06 00:04:48;;;;;;;9.20;4.22;;;10.20;99.90;;;;;;4822090;29;20042;-85
2022/11/06 00:07:14;;;;;;;10.43;5.15;;;10.20;99.90;;;;;;4809565;29;20083;-86
2022/11/06 00:09:39;;;;;;;8.70;4.93;;;10.20;99.90;;;;;;4824187;29;20050;-86
2022/11/06 00:12:05;;;;;;;7.20;4.10;;;10.10;99.90;;;;;;4823264;29;20035;-85
2022/11/06 00:14:31;;;;;;;9.95;4.72;;;10.10;99.90;;;;;;4821586;29;20042;-85
2022/11/06 00:16:56;;;;;;;9.60;5.63;;;11.20;99.90;;;;;;4822561;29;20049;-85
2022/11/06 00:19:22;;;;;;;7.55;4.82;;;10.10;99.90;;;;;;4821816;29;20039;-86
2022/11/06 00:21:48;;;;;;;8.70;4.68;;;10.10;99.90;;;;;;4817809;29;20061;-84
2022/11/06 00:24:14;;;;;;;9.10;4.38;;;10.20;99.90;;;;;;4822357;29;20501;-84
2022/11/06 00:26:40;;;;;;;8.73;4.78;;;10.10;99.90;;;;;;4805610;29;20136;-86
2022/11/06 00:29:06;;;;;;;9.90;4.70;;;10.40;99.90;;;;;;4821863;29;20562;-85
2022/11/06 00:31:36;;;;;;;12.40;6.43;;;10.50;99.90;;;;;;4808660;29;20043;-86
2022/11/06 00:34:05;;;;;;;9.25;4.97;;;10.00;99.90;;;;;;4833192;29;20081;-87
2022/11/06 00:36:34;;;;;;;10.88;5.55;;;10.00;99.90;;;;;;4832835;29;20563;-87
2022/11/06 00:39:00;;;;;;;10.27;5.28;;;10.00;99.90;;;;;;4814573;29;20509;-85
2022/11/06 00:41:27;;;;;;;7.53;5.30;;;10.00;99.90;;;;;;4822189;29;20054;-84
2022/11/06 00:43:58;;;;;;;9.88;5.03;;;10.00;99.90;;;;;;4816519;29;20562;-85
2022/11/06 00:46:25;;;;;;;9.18;4.90;;;9.80;99.90;;;;;;4821470;29;20030;-85
2022/11/06 00:48:52;;;;;;;8.80;5.22;;;9.90;99.90;;;;;;4819623;29;20129;-85
2022/11/06 00:51:27;;;;;;;16.33;6.30;;;9.90;99.90;;;;;;4821993;29;20240;-86
2022/11/06 00:53:54;;;;;;;12.43;5.35;;;9.90;99.90;;;;;;4821259;29;20050;-86
2022/11/06 00:56:20;;;;;;;10.20;5.78;;;9.90;99.90;;;;;;4821446;29;20078;-85
2022/11/06 00:58:47;;;;;;;9.73;5.43;;;9.90;99.90;;;;;;4824185;29;20074;-85
2022/11/06 01:01:20;;;;;;;8.75;5.30;;;10.50;99.90;;;;;;4821174;29;20042;-85
2022/11/06 01:03:51;;;;;;;9.70;5.03;;;9.90;99.90;;;;;;4820652;29;20118;-86
2022/11/06 01:06:21;;;;;;;10.82;4.93;;;9.80;99.90;;;;;;4826427;29;20099;-85
2022/11/06 01:08:47;;;;;;;11.07;5.03;;;9.90;99.90;;;;;;4809906;29;20046;-85
2022/11/06 01:11:25;;;;;;;9.15;5.95;;;10.00;99.90;;;;;;4820761;29;20046;-85
2022/11/06 01:13:55;;;;;;;12.93;6.25;;;9.80;99.90;;;;;;4820564;29;20057;-85
2022/11/06 01:16:21;;;;;;;12.70;5.72;;;9.80;99.90;;;;;;4819085;29;20064;-85
2022/11/06 01:18:48;;;;;;;10.10;6.05;;;9.80;99.90;;;;;;4819576;29;20038;-84
2022/11/06 01:21:16;;;;;;;8.85;5.57;;;9.70;99.90;;;;;;4832960;29;20031;-85
2022/11/06 01:23:46;;;;;;;13.20;6.53;;;9.70;99.90;;;;;;4820727;29;20413;-85
2022/11/06 01:26:13;;;;;;;10.35;5.85;;;9.60;99.90;;;;;;4831019;29;20049;-85
2022/11/06 01:28:40;;;;;;;8.27;6.20;;;9.60;99.90;;;;;;4822916;29;20121;-84
2022/11/06 01:31:11;;;;;;;10.55;6.50;;;9.60;99.90;;;;;;4819947;29;20108;-84
2022/11/06 01:33:36;;;;;;;9.13;6.57;;;9.60;99.90;;;;;;4818533;29;20058;-84
2022/11/06 01:36:03;;;;;;;10.00;6.70;;;9.60;99.90;;;;;;4819957;29;20034;-85
2022/11/06 01:38:29;;;;;;;13.50;6.15;;;9.60;99.90;;;;;;4816760;29;20142;-85
2022/11/06 01:41:03;;;;;;;9.02;6.22;;;10.20;99.90;;;;;;4820625;29;20457;-85
2022/11/06 01:43:56;;;;;;;7.78;6.78;;;9.60;99.90;;;;;;4818253;29;20953;-85
2022/11/06 01:46:26;;;;;;;12.88;6.20;;;9.60;99.90;;;;;;4814322;29;20121;-85
2022/11/06 01:48:56;;;;;;;10.77;6.78;;;10.10;99.90;;;;;;4818433;29;20054;-85
2022/11/06 01:51:25;;;;;;;11.18;7.18;;;9.50;99.90;;;;;;4817450;29;20490;-84
2022/11/06 01:53:52;;;;;;;13.00;6.97;;;9.50;99.90;;;;;;4828339;29;20046;-85
2022/11/06 01:56:22;;;;;;;8.95;6.60;;;9.50;99.90;;;;;;4818066;29;20150;-85
2022/11/06 01:58:57;;;;;;;12.95;7.10;;;9.60;99.90;;;;;;4834858;29;20054;-84
2022/11/06 02:01:22;;;;;;;11.88;7.20;;;9.50;99.90;;;;;;4819035;29;20139;-84
2022/11/06 02:04:02;;;;;;;12.70;6.82;;;9.40;99.90;;;;;;4803646;29;20113;-85
2022/11/06 02:06:27;;;;;;;17.13;7.20;;;9.40;99.90;;;;;;4817462;29;20038;-85
2022/11/06 02:08:54;;;;;;;13.00;7.22;;;9.50;99.90;;;;;;4834111;29;20053;-85
2022/11/06 02:11:19;;;;;;;12.85;7.05;;;9.50;99.90;;;;;;4818478;29;20183;-83
2022/11/06 02:14:17;;;;;;;14.18;7.85;;;10.40;99.90;;;;;;4834368;29;20125;-85
2022/11/06 02:16:53;;;;;;;11.85;7.38;;;9.40;99.90;;;;;;4819766;29;20509;-85
2022/11/06 02:19:40;;;;;;;13.13;7.38;;;9.80;99.90;;;;;;4833404;29;20487;-84
2022/11/06 02:22:24;;;;;;;13.85;8.05;;;9.40;99.90;;;;;;4832937;29;20065;-84
2022/11/06 02:25:28;;;;;;;10.65;7.63;;;9.40;99.90;;;;;;4802878;29;20046;-84
2022/11/06 02:28:10;;;;;;;11.07;7.47;;;9.40;99.90;;;;;;4834023;29;20047;-85
2022/11/06 02:30:42;;;;;;;11.55;7.35;;;9.40;99.90;;;;;;4820415;29;20405;-84
2022/11/06 02:33:24;;;;;;;16.20;7.97;;;9.40;99.90;;;;;;4816635;29;20050;-85
2022/11/06 02:36:02;;;;;;;14.63;8.27;;;9.30;99.90;;;;;;4819942;29;20100;-84
2022/11/06 02:38:33;;;;;;;9.77;7.30;;;9.30;99.90;;;;;;4821804;29;20125;-85
2022/11/06 02:41:04;;;;;;;16.38;7.57;;;9.30;99.90;;;;;;4821620;29;20074;-85
2022/11/06 02:43:37;;;;;;;12.20;7.85;;;9.30;99.90;;;;;;4807863;29;20043;-85
2022/11/06 02:46:27;;;;;;;18.35;8.25;;;9.20;99.90;;;;;;4821868;29;20055;-85
2022/11/06 02:49:02;;;;;;;11.15;7.07;;;9.30;99.90;;;;;;4820851;29;20081;-84
2022/11/06 02:51:30;;;;;;;17.17;8.73;;;9.30;99.90;;;;;;4834232;29;20054;-84
2022/11/06 02:54:04;;;;;;;11.07;7.50;;;9.90;99.90;;;;;;4823633;29;20117;-85
2022/11/06 02:56:35;;;;;;;14.15;7.47;;;9.30;99.90;;;;;;4823087;29;20070;-85
2022/11/06 02:59:08;;;;;;;10.70;7.15;;;9.30;99.90;;;;;;4819366;29;20038;-85
2022/11/06 03:01:39;;;;;;;11.18;8.15;;;9.30;99.90;;;;;;4835498;29;20061;-85
2022/11/06 03:04:13;;;;;;;13.68;6.80;;;9.40;99.90;;;;;;4807822;29;20128;-85
2022/11/06 03:06:46;;;;;;;9.95;7.35;;;9.30;99.90;;;;;;4822091;29;20493;-85
2022/11/06 03:09:17;;;;;;;9.90;7.03;;;9.30;99.90;;;;;;4800766;29;20054;-84
2022/11/06 03:11:44;;;;;;;13.68;7.20;;;9.30;99.90;;;;;;4801287;29;20038;-84
2022/11/06 03:14:34;;;;;;;10.32;6.80;;;10.00;99.90;;;;;;4805561;29;20045;-84
2022/11/06 03:17:35;;;;;;;13.98;7.35;;;9.30;99.90;;;;;;4818966;29;20045;-85
2022/11/06 03:20:22;;;;;;;16.17;7.43;;;9.30;99.90;;;;;;4823084;29;20121;-84
2022/11/06 03:23:05;;;;;;;12.98;7.47;;;9.30;99.90;;;;;;4834512;29;20047;-84
2022/11/06 03:25:59;;;;;;;13.60;7.30;;;9.60;99.90;;;;;;4831931;29;20034;-85
2022/11/06 03:28:34;;;;;;;16.83;7.60;;;9.30;99.90;;;;;;4820589;29;20384;-85
2022/11/06 03:31:08;;;;;;;14.55;7.28;;;9.30;99.90;;;;;;4832603;29;20046;-85
2022/11/06 03:33:42;;;;;;;14.10;7.20;;;9.40;99.90;;;;;;4824236;29;20082;-85
2022/11/06 03:36:21;;;;;;;9.45;6.82;;;9.30;99.90;;;;;;4832515;29;20097;-84
2022/11/06 03:38:54;;;;;;;10.65;7.25;;;9.30;99.90;;;;;;4833744;29;20883;-85
2022/11/06 03:41:30;;;;;;;13.50;8.40;;;9.30;99.90;;;;;;4833750;29;20051;-83
2022/11/06 03:44:00;;;;;;;9.65;7.10;;;9.20;99.90;;;;;;4819335;29;20129;-84
2022/11/06 03:46:36;;;;;;;12.93;6.55;;;9.20;99.90;;;;;;4819082;29;20042;-84
2022/11/06 03:49:08;;;;;;;12.15;7.28;;;9.20;99.90;;;;;;4834301;29;20090;-84
2022/11/06 03:52:55;;;;;;;14.13;7.35;;;9.20;99.90;;;;;;4806692;29;20046;-84
2022/11/06 03:55:47;;;;;;;11.02;6.63;;;9.20;99.90;;;;;;4744333;29;20527;-84
2022/11/06 03:58:25;;;;;;;12.65;6.57;;;9.30;99.90;;;;;;4759175;29;20099;-84
2022/11/06 04:01:26;;;;;;;16.20;7.20;;;9.20;99.90;;;;;;4806924;29;20054;-85
2022/11/06 04:04:10;;;;;;;9.18;6.35;;;9.20;99.90;;;;;;4804144;29;20111;-85
2022/11/06 04:06:41;;;;;;;12.40;7.05;;;9.20;99.90;;;;;;4832807;29;20066;-85
2022/11/06 04:14:46;;;;;;;16.33;7.03;;;9.20;99.90;;;;;;4821659;29;20496;-85
2022/11/06 04:17:12;;;;;;;13.57;6.93;;;9.20;99.90;;;;;;4804302;29;20542;-85
2022/11/06 04:19:55;;;;;;;9.13;7.07;;;9.20;99.90;;;;;;4821367;29;20490;-85
2022/11/06 04:22:30;;;;;;;16.98;6.55;;;9.20;99.90;;;;;;4822109;29;20121;-86
2022/11/06 04:28:22;;;;;;;15.10;6.05;;;9.20;99.90;;;;;;4820219;29;20113;-85
2022/11/06 04:31:31;;;;;;;12.80;5.75;;;9.20;99.90;;;;;;4817968;29;20049;-85
2022/11/06 04:34:05;;;;;;;14.32;7.50;;;9.20;99.90;;;;;;4803988;29;20107;-85
2022/11/06 04:36:39;;;;;;;9.60;5.82;;;9.20;99.90;;;;;;4818727;29;20485;-84
2022/11/06 04:39:33;;;;;;;14.68;6.70;;;9.20;99.90;;;;;;4832817;29;20050;-85
2022/11/06 04:42:15;;;;;;;16.98;6.05;;;9.20;99.90;;;;;;4819923;29;20125;-86
2022/11/06 04:44:51;;;;;;;13.68;5.65;;;9.20;99.90;;;;;;4823435;29;20071;-85
2022/11/06 04:47:20;;;;;;;14.13;6.15;;;9.20;99.90;;;;;;4818801;29;20038;-85
2022/11/06 04:49:51;;;;;;;14.02;6.28;;;10.10;99.90;;;;;;4803508;29;20046;-84
2022/11/06 04:52:24;;;;;;;12.07;5.57;;;9.80;99.90;;;;;;4818755;29;20134;-85
2022/11/06 04:54:51;;;;;;;9.88;5.15;;;9.20;99.90;;;;;;4817648;29;20046;-84
2022/11/06 04:57:16;;;;;;;14.07;5.38;;;9.30;99.90;;;;;;4826250;29;20046;-84
2022/11/06 04:59:42;;;;;;;13.45;6.60;;;9.30;99.90;;;;;;4818297;29;20030;-84
2022/11/06 05:02:09;;;;;;;10.48;5.35;;;9.30;99.90;;;;;;4819452;29;20199;-85
2022/11/06 05:04:35;;;;;;;11.07;5.63;;;9.30;99.90;;;;;;4818983;29;20421;-84
2022/11/06 05:07:12;;;;;;;9.10;5.10;;;9.30;99.90;;;;;;4804566;29;20039;-85
2022/11/06 05:09:44;;;;;;;10.63;5.32;;;9.40;99.90;;;;;;4816911;29;20133;-84
2022/11/06 05:12:33;;;;;;;13.38;5.13;;;9.30;99.90;;;;;;4803334;29;20034;-84
2022/11/06 05:14:59;;;;;;;9.57;4.70;;;9.30;99.90;;;;;;4833295;29;20039;-83
2022/11/06 05:17:25;;;;;;;11.02;6.10;;;9.30;99.90;;;;;;4803836;29;20638;-85
2022/11/06 05:19:52;;;;;;;9.57;5.00;;;9.30;99.90;;;;;;4804251;29;20077;-85
2022/11/06 05:25:03;;;;;;;13.02;4.32;;;9.30;99.90;;;;;;4818353;29;20050;-84
2022/11/06 05:27:28;;;;;;;20.90;4.97;;;9.30;99.90;;;;;;4817195;29;20414;-85
2022/11/06 05:29:56;;;;;;;8.25;4.13;;;9.30;99.90;;;;;;4817251;29;20080;-84
2022/11/06 05:32:21;;;;;;;14.68;4.75;;;9.30;99.90;;;;;;4817965;29;20038;-85
2022/11/06 05:34:49;;;;;;;12.70;3.95;;;9.30;99.90;;;;;;4817205;29;20103;-85
2022/11/06 05:37:15;;;;;;;9.23;3.78;;;9.30;99.90;;;;;;4815084;29;20469;-84
2022/11/06 05:39:40;;;;;;;11.82;4.28;;;9.30;99.90;;;;;;4807323;29;20133;-83
2022/11/06 05:42:06;;;;;;;10.07;4.15;;;9.30;99.90;;;;;;4818160;29;20507;-84
2022/11/06 05:44:31;;;;;;;7.63;3.97;;;9.30;99.90;;;;;;4820981;29;20491;-84
2022/11/06 05:46:57;;;;;;;7.95;3.17;;;9.30;99.90;;;;;;4816964;29;20831;-84
2022/11/06 05:49:25;;;;;;;11.30;4.20;;;9.30;99.90;;;;;;4808175;29;20042;-85
2022/11/06 05:52:09;;;;;;;12.43;4.30;;;9.30;99.90;;;;;;4819731;29;20046;-85
2022/11/06 05:54:34;;;;;;;9.20;3.45;;;9.20;99.90;;;;;;4817998;29;20050;-84
2022/11/06 05:57:00;;;;;;;10.40;3.55;;;9.30;99.90;;;;;;4801184;29;20053;-85
2022/11/06 05:59:28;;;;;;;12.38;3.22;;;9.30;99.90;;;;;;4833337;29;20046;-84
2022/11/06 06:02:00;;;;;;;12.48;3.90;;;9.30;99.90;;;;;;4820165;29;20049;-84
2022/11/06 06:04:44;;;;;;;10.90;3.50;;;9.30;99.90;;;;;;4814148;29;20058;-84
2022/11/06 06:07:09;;;;;;;8.90;4.03;;;9.80;99.90;;;;;;4804036;29;20405;-84
2022/11/06 06:09:35;;;;;;;10.18;2.88;;;9.60;99.90;;;;;;4805276;29;20043;-84
2022/11/06 06:12:01;;;;;;;9.40;3.00;;;9.30;99.90;;;;;;4808935;29;20042;-84
2022/11/06 06:14:26;;;;;;;9.48;2.72;;;9.30;99.90;;;;;;4835409;29;20038;-84
2022/11/06 06:16:52;;;;;;;6.90;2.58;;;9.40;99.90;;;;;;4802787;29;20043;-87
2022/11/06 06:19:18;;;;;;;9.15;3.05;;;9.50;99.90;;;;;;4837057;29;20058;-86
2022/11/06 06:21:43;;;;;;;7.65;2.58;;;9.40;99.90;;;;;;4826437;29;20479;-87
2022/11/06 06:24:09;;;;;;;11.95;3.08;;;9.50;99.90;;;;;;4823122;29;20070;-85
2022/11/06 06:26:34;;;;;;;6.80;2.95;;;9.50;99.90;;;;;;4823866;29;20418;-85
2022/11/06 06:29:01;;;;;;;12.15;3.05;;;10.30;99.90;;;;;;4821980;29;20046;-85
2022/11/06 06:31:26;;;;;;;9.15;3.42;;;9.50;99.90;;;;;;4806446;29;20107;-84
2022/11/06 06:33:52;;;;;;;11.02;2.88;;;9.50;99.90;;;;;;4825656;29;20464;-84
2022/11/06 06:36:17;;;;;;;9.93;2.42;;;9.50;99.90;;;;;;4825096;29;20045;-84
2022/11/06 06:38:43;;;;;;;9.43;2.78;;;9.50;99.90;;;;;;4826263;29;20046;-85
2022/11/06 06:41:09;;;;;;;11.25;2.80;;;9.50;99.90;;;;;;4824572;29;20049;-86
2022/11/06 06:43:35;;;;;;;7.32;2.08;;;9.90;99.90;;;;;;4819633;29;20085;-83
2022/11/06 06:46:03;;;;;;;6.25;2.40;;;9.60;99.90;;;;;;4820651;29;20049;-85
2022/11/06 06:48:29;;;;;;;10.20;2.38;;;9.50;99.90;;;;;;4832116;29;20052;-87
2022/11/06 06:50:59;;;;;;;9.57;2.55;;;10.40;99.90;;;;;;4820260;29;20042;-85
2022/11/06 06:53:25;;;;;;;9.32;2.42;;;9.60;99.90;;;;;;4823556;29;20128;-85
2022/11/06 06:55:51;;;;;;;11.63;2.47;;;9.60;99.90;;;;;;4819695;29;20046;-85
2022/11/06 06:58:17;;;;;;;10.27;2.63;;;9.90;99.90;;;;;;4822985;29;20129;-85
2022/11/06 07:00:43;;;;;;;11.90;2.72;;;10.00;99.90;;;;;;4826092;29;20125;-87
2022/11/06 07:03:09;;;;;;;7.15;2.50;;;10.30;99.90;;;;;;4813610;29;20057;-85
2022/11/06 07:05:39;;;;;;;7.00;2.38;;;9.80;99.90;;;;;;4822248;29;20045;-88
2022/11/06 07:08:08;;;;;;;8.45;2.25;;;9.80;99.90;;;;;;4840278;29;20099;-87
2022/11/06 07:10:34;;;;;;;7.20;1.73;;;10.70;99.90;;;;;;4826998;29;20065;-86
2022/11/06 07:13:04;;;;;;;8.95;2.25;;;9.80;99.90;;;;;;4821853;29;20042;-87
2022/11/06 07:15:30;;;;;;;4.45;1.90;;;9.80;99.90;;;;;;4835984;29;20616;-86
2022/11/06 07:18:06;;;;;;;8.43;2.35;;;9.90;99.90;;;;;;4822275;29;20045;-86
2022/11/06 07:20:33;;;;;;;8.82;2.08;;;9.90;99.90;;;;;;4824056;29;20693;-86
2022/11/06 07:23:06;;;;;;;6.53;1.73;;;10.30;99.90;;;;;;4820506;29;20623;-85
2022/11/06 07:25:32;;;;;;;8.35;1.63;;;9.90;99.90;;;;;;4835759;29;20057;-85
2022/11/06 07:28:05;;;;;;;8.32;2.05;;;10.70;99.90;;;;;;4824520;29;20134;-87
2022/11/06 07:30:34;;;;;;;6.47;1.48;;;10.00;99.90;;;;;;4809139;29;20383;-86
2022/11/06 07:33:08;;;;;;;15.52;2.38;;;10.40;99.90;;;;;;4841408;29;20413;-87
2022/11/06 07:35:34;;;;;;;8.90;1.98;;;10.10;99.90;;;;;;4825381;29;20184;-85
2022/11/06 07:38:05;;;;;;;8.48;2.67;;;10.10;99.90;;;;;;4826276;29;20141;-87
2022/11/06 07:40:38;;;;;;;8.60;1.52;;;10.10;99.90;;;;;;4811343;29;20046;-87
2022/11/06 07:43:50;;;;;;;8.27;1.70;;;10.10;99.90;;;;;;4822903;29;20038;-87
2022/11/06 07:46:45;;;;;;;7.68;2.15;;;10.20;99.90;;;;;;4833033;29;20042;-87
2022/11/06 07:49:25;;;;;;;5.03;1.88;;;10.10;99.90;;;;;;4821864;29;20053;-86
2022/11/06 07:52:04;;;;;;;9.15;2.25;;;10.10;99.90;;;;;;4834493;29;20057;-85
2022/11/06 07:54:37;;;;;;;6.35;2.03;;;10.00;99.90;;;;;;4823921;29;20053;-85
2022/11/06 07:57:32;;;;;;;10.25;2.60;;;10.00;99.90;;;;;;4809008;29;20046;-84
2022/11/06 08:07:32;;;;;;;7.30;2.25;;;10.10;99.90;;;;;;4822818;29;20056;-82
2022/11/06 08:09:58;;;;;;;11.05;2.10;;;10.10;99.90;;;;;;4830855;29;20046;-83
2022/11/06 08:12:24;;;;;;;6.10;1.70;;;10.10;99.90;;;;;;4808676;29;20685;-83
2022/11/06 08:14:53;;;;;;;5.68;1.30;;;10.10;99.90;;;;;;4822863;29;20046;-83
2022/11/06 08:17:18;;;;;;;7.68;1.70;;;10.30;99.90;;;;;;4807978;29;20042;-83
2022/11/06 08:19:44;;;;;;;7.57;2.65;;;10.20;99.90;;;;;;4808721;29;20042;-82
2022/11/06 08:22:09;;;;;;;8.23;2.30;;;10.20;99.90;;;;;;4823564;29;20043;-83
2022/11/06 08:24:35;;;;;;;5.80;2.30;;;10.20;99.90;;;;;;4806675;29;20046;-83
2022/11/06 08:27:01;;;;;;;11.65;3.15;;;10.20;99.90;;;;;;4822500;29;20409;-81
2022/11/06 08:29:27;;;;;;;5.63;1.48;;;10.20;99.90;;;;;;4838510;29;20050;-83
2022/11/06 08:31:56;;;;;;;8.88;1.92;;;10.20;99.90;;;;;;4808471;29;20050;-82
2022/11/06 08:34:24;;;;;;;6.22;1.67;;;10.20;99.90;;;;;;4817700;29;20047;-82
2022/11/06 08:36:51;;;;;;;7.03;1.50;;;10.20;99.90;;;;;;4809752;29;20046;-83
2022/11/06 08:39:16;;;;;;;8.02;1.88;;;10.20;99.90;;;;;;4816502;29;20050;-82
2022/11/06 08:41:43;;;;;;;7.45;1.70;;;10.10;99.90;;;;;;4804355;29;20052;-83
2022/11/06 08:44:09;;;;;;;5.30;1.80;;;10.20;99.90;;;;;;4801297;29;20034;-82
2022/11/06 08:58:37;;;;;;;8.38;1.88;;;10.20;99.90;;;;;;4739661;30;20047;-83
2022/11/06 09:05:20;;;;;;;5.07;1.50;;;10.40;99.90;;;;;;4763309;30;20116;-84
2022/11/06 09:10:22;;;;;;;10.90;1.98;;;10.40;99.90;;;;;;4949664;24;20215;-83
2022/11/06 09:16:09;;;;;;;8.32;1.55;;;10.50;99.90;;;;;;4854351;29;20128;-83
2022/11/06 09:18:35;;;;;;;8.50;1.58;;;10.50;99.90;;;;;;4838659;29;21974;-83
2022/11/06 09:21:00;;;;;;;9.02;1.77;;;10.60;99.90;;;;;;4825927;29;20124;-83
2022/11/06 09:23:27;;;;;;;6.75;1.95;;;10.80;99.90;;;;;;4824880;29;20658;-84
2022/11/06 09:25:53;;;;;;;5.50;1.42;;;10.80;99.90;;;;;;4834224;29;20549;-83
2022/11/06 09:28:18;;;;;;;6.22;1.58;;;11.20;99.90;;;;;;4835151;29;20124;-83
2022/11/06 09:30:44;;;;;;;5.22;1.85;;;11.20;99.90;;;;;;4831726;29;20577;-83
2022/11/06 09:33:10;;;;;;;6.03;1.83;;;11.50;99.90;;;;;;4834123;29;20045;-83
2022/11/06 09:35:36;;;;;;;6.80;1.45;;;11.40;99.90;;;;;;4822023;29;20204;-83
2022/11/06 09:38:09;;;;;;;6.97;1.67;;;11.70;99.90;;;;;;4835399;29;20125;-83
2022/11/06 09:40:45;;;;;;;4.75;1.15;;;11.60;99.90;;;;;;4828189;29;20045;-84
2022/11/06 09:43:29;;;;;;;6.10;1.75;;;11.70;99.90;;;;;;4839485;29;20041;-83
2022/11/06 09:46:20;;;;;;;7.30;1.70;;;11.70;99.90;;;;;;4831828;29;20044;-83
2022/11/06 09:48:59;;;;;;;9.52;1.95;;;11.70;99.90;;;;;;4828955;29;20066;-83
2022/11/06 09:51:44;;;;;;;3.65;1.30;;;11.60;99.90;;;;;;4842488;29;20128;-83
2022/11/06 09:54:35;;;;;;;6.65;1.10;;;11.50;99.90;;;;;;4822814;29;20044;-83
2022/11/06 09:57:08;;;;;;;5.93;1.40;;;11.50;99.90;;;;;;4822042;29;20115;-83
2022/11/06 09:59:40;;;;;;;8.60;1.50;;;11.50;99.90;;;;;;4820598;29;20057;-83
2022/11/06 10:02:31;;;;;;;4.60;1.20;;;11.40;99.90;;;;;;4811990;29;20058;-84
2022/11/06 10:05:04;;;;;;;6.50;1.42;;;11.40;99.90;;;;;;4822739;29;20153;-84
2022/11/06 10:07:33;;;;;;;7.53;2.05;;;12.00;99.90;;;;;;4819425;29;20063;-83
2022/11/06 10:10:01;;;;;;;8.88;1.52;;;11.90;99.90;;;;;;4840218;29;20406;-83
2022/11/06 10:12:45;;;;;;;4.88;1.60;;;11.30;99.90;;;;;;4824920;29;20037;-83
2022/11/06 10:15:44;;;;;;;7.35;1.60;;;11.30;99.90;;;;;;4835243;29;20152;-83
2022/11/06 10:18:30;;;;;;;7.45;1.27;;;11.40;99.90;;;;;;4840293;29;20504;-83
2022/11/06 10:21:10;;;;;;;4.28;1.20;;;11.40;99.90;;;;;;4826024;29;20125;-83
2022/11/06 10:23:46;;;;;;;7.05;1.05;;;11.50;99.90;;;;;;4818410;29;20052;-84
2022/11/06 10:26:19;;;;;;;;;;;11.50;99.90;;;;;;4827427;29;20151;-84
2022/11/06 10:29:06;;;;;;;4.63;1.30;;;11.50;99.90;;;;;;4836829;29;20383;-83
2022/11/06 10:32:04;;;;;;;6.82;1.10;;;11.70;99.90;;;;;;4837728;29;20037;-83
2022/11/06 10:34:53;;;;;;;3.55;1.20;;;11.50;99.90;;;;;;4838034;29;20068;-83
2022/11/06 10:37:27;;;;;;;6.78;1.10;;;11.70;99.90;;;;;;4846658;29;20042;-84
2022/11/06 10:39:55;;;;;;;9.63;1.25;;;11.60;99.90;;;;;;4829135;29;20044;-83
2022/11/06 10:42:29;;;;;;;7.53;1.42;;;11.80;99.90;;;;;;4822494;29;20045;-84
2022/11/06 10:45:14;;;;;;;3.63;1.13;;;11.80;99.90;;;;;;4819578;29;20038;-84
2022/11/06 10:48:18;;;;;;;3.83;0.70;;;11.70;99.90;;;;;;4832823;29;20037;-83
2022/11/06 10:51:03;;;;;;;4.65;1.10;;;11.60;99.90;;;;;;4825300;29;20085;-83
2022/11/06 10:54:07;;;;;;;8.25;1.63;;;11.60;99.90;;;;;;4844444;29;20421;-84
2022/11/06 10:56:59;;;;;;;5.38;1.10;;;11.10;99.90;;;;;;4822894;29;20057;-83
2022/11/06 10:59:24;;;;;;;9.68;1.40;;;11.50;99.90;;;;;;4825469;29;20133;-83
2022/11/06 11:01:50;;;;;;;5.97;1.23;;;11.50;99.90;;;;;;4828849;29;20639;-83
2022/11/06 11:04:16;;;;;;;4.43;1.40;;;12.30;99.90;;;;;;4843287;29;20114;-83
2022/11/06 11:06:42;;;;;;;4.00;1.10;;;11.90;99.90;;;;;;4845324;29;20131;-83
2022/11/06 11:09:31;;;;;;;6.82;1.38;;;11.70;99.90;;;;;;4845332;29;20061;-83
2022/11/06 11:11:58;;;;;;;4.60;1.33;;;11.60;99.90;;;;;;4829214;29;20773;-83
2022/11/06 11:14:30;;;;;;;5.47;0.98;;;11.50;99.90;;;;;;4842220;29;20082;-83
2022/11/06 11:17:01;;;;;;;5.70;1.20;;;11.60;99.90;;;;;;4809714;29;20049;-84
2022/11/06 11:23:24;;;;;;;4.90;1.40;;;11.60;99.90;;;;;;4860411;29;20135;-83
2022/11/06 11:26:35;;;;;;;8.02;1.70;;;11.60;99.90;;;;;;4823880;29;20034;-82
2022/11/06 11:29:57;;;;;;;5.15;1.50;;;11.60;99.90;;;;;;4824094;29;20513;-83
2022/11/06 11:32:37;;;;;;;6.88;1.33;;;11.20;99.90;;;;;;4859218;29;20114;-84
2022/11/06 11:35:15;;;;;;;5.43;1.40;;;11.90;99.90;;;;;;4824721;29;20114;-83
2022/11/06 11:37:44;;;;;;;4.75;1.10;;;11.70;99.90;;;;;;4837872;29;20512;-82
2022/11/06 11:40:21;;;;;;;7.35;1.75;;;11.70;99.90;;;;;;4837575;29;20882;-81
2022/11/06 11:42:46;;;;;;;8.15;1.17;;;11.70;99.90;;;;;;4824665;29;20573;-81
2022/11/06 11:45:16;;;;;;;6.40;1.38;;;11.80;99.90;;;;;;4851596;29;20045;-81
2022/11/06 11:47:48;;;;;;;5.70;1.20;;;11.80;99.90;;;;;;4823764;29;20057;-81
2022/11/06 11:50:26;;;;;;;4.90;1.30;;;11.80;99.90;;;;;;4854898;29;20053;-81
2022/11/06 11:53:17;;;;;;;6.95;1.40;;;11.90;99.90;;;;;;4840592;29;20045;-81
2022/11/06 11:55:51;;;;;;;4.85;0.80;;;11.90;99.90;;;;;;4840677;29;20049;-85
2022/11/06 11:58:27;;;;;;;7.47;1.20;;;12.00;99.90;;;;;;4816865;29;20052;-85
2022/11/06 12:01:07;;;;;;;5.82;1.20;;;12.10;99.90;;;;;;4846397;29;20037;-85
2022/11/06 12:03:51;;;;;;;4.10;0.98;;;12.00;99.90;;;;;;4829156;29;20129;-83
2022/11/06 12:06:18;;;;;;;5.00;0.98;;;12.10;99.90;;;;;;4829582;29;20042;-86
2022/11/06 12:09:33;;;;;;;5.10;1.25;;;12.20;99.90;;;;;;4826622;29;20046;-85
2022/11/06 12:12:00;;;;;;;4.13;1.13;;;12.20;99.90;;;;;;4842574;29;20128;-84
2022/11/06 12:14:40;;;;;;;4.47;1.15;;;12.90;99.90;;;;;;4828596;29;20048;-84
2022/11/06 12:17:29;;;;;;;5.95;0.80;;;12.30;99.90;;;;;;4857169;29;20040;-84
2022/11/06 12:19:58;;;;;;;4.45;0.90;;;11.60;99.90;;;;;;4838674;29;20052;-83
2022/11/06 12:22:31;;;;;;;3.72;0.80;;;12.40;99.90;;;;;;4841408;29;20037;-84
2022/11/06 12:25:12;;;;;;;8.80;1.85;;;12.50;99.90;;;;;;4821851;29;20044;-83
2022/11/06 12:27:42;;;;;;;7.95;1.10;;;12.50;99.90;;;;;;4825400;29;20167;-82
2022/11/06 12:30:17;;;;;;;5.90;1.25;;;12.50;99.90;;;;;;4841113;29;20113;-82
2022/11/06 12:33:16;;;;;;;2.20;0.70;;;12.50;99.90;;;;;;4823542;29;20049;-85
2022/11/06 12:36:06;;;;;;;4.20;0.70;;;12.60;99.90;;;;;;4837937;29;20405;-84
2022/11/06 12:39:07;;;;;;;4.32;0.90;;;12.50;99.90;;;;;;4827782;29;20037;-84
2022/11/06 12:41:37;;;;;;;5.30;1.05;;;12.50;99.90;;;;;;4824977;29;20046;-84
2022/11/06 12:44:12;;;;;;;4.43;1.08;;;12.50;99.90;;;;;;4830407;29;20050;-83
2022/11/06 12:46:42;;;;;;;5.47;1.02;;;12.40;99.90;;;;;;4839009;29;20136;-84
2022/11/06 12:49:17;;;;;;;6.35;1.23;;;12.40;99.90;;;;;;4825242;29;20489;-84
2022/11/06 12:52:00;;;;;;;5.53;1.17;;;12.40;99.90;;;;;;4824569;29;20033;-82
2022/11/06 12:54:50;;;;;;;3.45;1.35;;;12.30;99.90;;;;;;4828793;29;20042;-83
2022/11/06 12:57:41;;;;;;;5.82;0.88;;;12.30;99.90;;;;;;4839803;29;20132;-84
2022/11/06 13:00:15;;;;;;;4.93;0.82;;;12.30;99.90;;;;;;4838588;29;20068;-85
2022/11/06 13:03:29;;;;;;;5.43;0.80;;;12.20;99.90;;;;;;4836831;29;20616;-87
2022/11/06 13:06:02;;;;;;;4.88;0.88;;;12.30;99.90;;;;;;4839594;29;20045;-84
2022/11/06 13:08:46;;;;;;;3.15;0.85;;;12.20;99.90;;;;;;4840291;29;20061;-85
2022/11/06 13:11:54;;;;;;;4.78;1.17;;;12.20;99.90;;;;;;4836823;29;20053;-82
2022/11/06 13:14:59;;;;;;;4.80;0.73;;;12.30;99.90;;;;;;4819923;29;20046;-82
2022/11/06 13:17:55;;;;;;;4.65;0.82;;;12.20;99.90;;;;;;4827349;29;20064;-83
2022/11/06 13:20:37;;;;;;;3.10;0.52;;;12.20;99.90;;;;;;4810182;29;20049;-83
2022/11/06 13:23:25;;;;;;;7.43;1.52;;;12.20;99.90;;;;;;4840924;29;20143;-84
2022/11/06 13:26:17;;;;;;;4.65;1.90;;;12.20;99.90;;;;;;4840261;29;20056;-84
2022/11/06 13:28:55;;;;;;;6.45;1.10;;;12.10;99.90;;;;;;4822310;29;20048;-83
2022/11/06 13:31:27;;;;;;;9.02;0.73;;;12.10;99.90;;;;;;4820524;29;20037;-82
2022/11/06 13:33:58;;;;;;;5.78;0.80;;;12.10;99.90;;;;;;4828067;29;20037;-82
2022/11/06 13:36:25;;;;;;;4.70;1.10;;;12.20;99.90;;;;;;4845542;29;20061;-84
2022/11/06 13:39:01;;;;;;;6.40;0.77;;;12.10;99.90;;;;;;4824754;29;20389;-83
2022/11/06 13:41:28;;;;;;;;;;;12.10;99.90;;;;;;4844429;29;20068;-83
2022/11/06 13:44:14;;;;;;;5.53;0.68;;;12.10;99.90;;;;;;4823773;29;19928;-82
2022/11/06 13:47:11;;;;;;;6.15;0.80;;;12.10;99.90;;;;;;4829101;29;20417;-82
2022/11/06 13:49:45;;;;;;;;;;;12.10;99.90;;;;;;4858487;29;20106;-81
2022/11/06 13:52:29;;;;;;;3.05;0.57;;;12.00;99.90;;;;;;4829128;29;20907;-81
2022/11/06 13:55:12;;;;;;;7.72;2.42;;;12.00;99.90;;;;;;4816840;29;20073;-82
2022/11/06 13:57:47;;;;;;;4.25;0.80;;;12.10;99.90;;;;;;4838519;29;20106;-82
2022/11/06 14:00:27;;;;;;;2.88;0.63;;;12.00;99.90;;;;;;4836500;29;20058;-81
2022/11/06 14:03:18;;;;;;;6.80;1.15;;;12.00;99.90;;;;;;4839915;29;20059;-83
2022/11/06 14:06:03;;;;;;;3.60;0.68;;;12.00;99.90;;;;;;4828927;29;21211;-83
2022/11/06 14:08:58;;;;;;;2.65;0.82;;;12.00;99.90;;;;;;4852369;29;20120;-86
2022/11/06 14:11:29;;;;;;;4.85;0.80;;;11.90;99.90;;;;;;4835453;29;20551;-84
2022/11/06 14:14:12;;;;;;;5.70;1.02;;;11.90;99.90;;;;;;4851824;29;20128;-83